createdAt,value
2018-12-06T00:01:19.662Z,5.30
2018-12-06T00:03:47.540Z,5.30
2018-12-06T00:06:15.351Z,5.20
2018-12-06T00:08:43.345Z,5.30
2018-12-06T00:11:11.134Z,5.30
2018-12-06T00:13:38.967Z,5.30
2018-12-06T00:16:06.857Z,5.30
2018-12-06T00:18:34.694Z,5.30
2018-12-06T00:21:02.543Z,5.30
2018-12-06T00:23:30.400Z,5.30
2018-12-06T00:25:58.236Z,5.20
2018-12-06T00:28:26.135Z,5.30
2018-12-06T00:30:53.986Z,5.30
2018-12-06T00:33:21.815Z,5.30
2018-12-06T00:35:49.800Z,5.30
2018-12-06T00:38:17.680Z,5.30
2018-12-06T00:40:45.571Z,5.30
2018-12-06T00:43:13.447Z,5.30
2018-12-06T00:45:41.319Z,5.30
2018-12-06T00:48:09.163Z,5.30
2018-12-06T00:50:36.997Z,5.30
2018-12-06T00:53:04.885Z,5.30
2018-12-06T00:55:32.732Z,5.30
2018-12-06T00:58:00.611Z,5.30
2018-12-06T01:00:28.542Z,5.30
2018-12-06T01:02:56.376Z,5.40
2018-12-06T01:05:24.247Z,5.40
2018-12-06T01:07:52.121Z,5.40
2018-12-06T01:10:19.943Z,5.40
2018-12-06T01:12:47.830Z,5.40
2018-12-06T01:15:15.737Z,5.40
2018-12-06T01:17:43.571Z,5.40
2018-12-06T01:20:11.443Z,5.40
2018-12-06T01:22:39.308Z,5.40
2018-12-06T01:25:07.422Z,5.40
2018-12-06T01:27:35.311Z,5.40
2018-12-06T01:30:03.356Z,5.50
2018-12-06T01:32:31.270Z,5.40
2018-12-06T01:34:59.101Z,5.50
2018-12-06T01:37:27.008Z,5.50
2018-12-06T01:39:54.894Z,5.40
2018-12-06T01:42:22.877Z,5.40
2018-12-06T01:44:50.740Z,5.40
2018-12-06T01:47:18.600Z,5.40
2018-12-06T01:49:46.459Z,5.40
2018-12-06T01:52:14.343Z,5.40
2018-12-06T01:54:42.212Z,5.40
2018-12-06T01:57:10.075Z,5.40
2018-12-06T01:59:38.070Z,5.40
2018-12-06T02:02:06.094Z,5.40
2018-12-06T02:04:34.098Z,5.40
2018-12-06T02:07:01.933Z,5.50
2018-12-06T02:09:29.824Z,5.50
2018-12-06T02:11:57.703Z,5.50
2018-12-06T02:14:25.584Z,5.50
2018-12-06T02:16:53.482Z,5.50
2018-12-06T02:19:21.387Z,5.50
2018-12-06T02:21:49.375Z,5.60
2018-12-06T02:24:17.254Z,5.60
2018-12-06T02:26:45.150Z,5.60
2018-12-06T02:29:13.027Z,5.60
2018-12-06T02:31:41.028Z,5.60
2018-12-06T02:34:08.975Z,5.60
2018-12-06T02:36:36.866Z,5.60
2018-12-06T02:39:07.279Z,5.50
2018-12-06T02:41:35.176Z,5.60
2018-12-06T02:44:03.117Z,5.50
2018-12-06T02:46:31.069Z,5.50
2018-12-06T02:48:58.936Z,5.60
2018-12-06T02:51:26.964Z,5.60
2018-12-06T02:53:54.832Z,5.60
2018-12-06T02:56:22.697Z,5.60
2018-12-06T02:58:50.541Z,5.60
2018-12-06T03:01:18.392Z,5.70
2018-12-06T03:03:46.365Z,5.60
2018-12-06T03:06:14.223Z,5.60
2018-12-06T03:08:42.123Z,5.60
2018-12-06T03:11:09.977Z,5.60
2018-12-06T03:13:37.839Z,5.60
2018-12-06T03:16:05.886Z,5.70
2018-12-06T03:18:33.793Z,5.60
2018-12-06T03:21:01.649Z,5.70
2018-12-06T03:23:29.556Z,5.70
2018-12-06T03:25:57.470Z,5.70
2018-12-06T03:28:25.359Z,5.70
2018-12-06T03:30:53.313Z,5.70
2018-12-06T03:33:21.216Z,5.70
2018-12-06T03:35:49.150Z,5.70
2018-12-06T03:38:17.005Z,5.70
2018-12-06T03:40:44.912Z,5.70
2018-12-06T03:43:12.944Z,5.70
2018-12-06T03:45:40.781Z,5.70
2018-12-06T03:48:08.630Z,5.70
2018-12-06T03:50:36.518Z,5.70
2018-12-06T03:53:04.415Z,5.80
2018-12-06T03:55:32.247Z,5.80
2018-12-06T03:58:00.159Z,5.80
2018-12-06T04:00:28.050Z,5.80
2018-12-06T04:02:55.978Z,5.80
2018-12-06T04:05:23.896Z,5.80
2018-12-06T04:07:51.726Z,5.80
2018-12-06T04:10:19.626Z,5.80
2018-12-06T04:12:47.639Z,5.90
2018-12-06T04:15:15.528Z,5.90
2018-12-06T04:17:43.379Z,5.90
2018-12-06T04:20:11.299Z,5.90
2018-12-06T04:22:39.304Z,5.90
2018-12-06T04:25:07.147Z,5.90
2018-12-06T04:27:35.025Z,5.90
2018-12-06T04:30:03.224Z,6.00
2018-12-06T04:32:31.088Z,6.00
2018-12-06T04:34:58.985Z,6.00
2018-12-06T04:37:26.852Z,6.00
2018-12-06T04:39:54.766Z,6.00
2018-12-06T04:42:22.665Z,5.80
2018-12-06T04:44:50.518Z,6.00
2018-12-06T04:47:18.388Z,6.00
2018-12-06T04:49:46.391Z,6.00
2018-12-06T04:52:14.301Z,6.10
2018-12-06T04:54:42.201Z,6.00
2018-12-06T04:57:10.071Z,6.10
2018-12-06T04:59:37.980Z,6.00
2018-12-06T05:02:05.999Z,6.10
2018-12-06T05:04:34.035Z,6.10
2018-12-06T05:07:01.931Z,6.10
2018-12-06T05:09:30.054Z,6.30
2018-12-06T05:11:57.904Z,6.10
2018-12-06T05:14:25.760Z,6.10
2018-12-06T05:16:53.664Z,6.20
2018-12-06T05:19:21.687Z,6.10
2018-12-06T05:21:49.560Z,6.20
2018-12-06T05:24:17.465Z,6.10
2018-12-06T05:26:45.616Z,6.20
2018-12-06T05:29:13.780Z,6.20
2018-12-06T05:31:41.697Z,6.20
2018-12-06T05:34:09.655Z,6.20
2018-12-06T05:36:37.521Z,6.30
2018-12-06T05:39:06.916Z,6.30
2018-12-06T05:41:34.781Z,5.00
2018-12-06T05:44:02.678Z,6.30
2018-12-06T05:46:30.580Z,6.30
2018-12-06T05:48:58.397Z,6.30
2018-12-06T05:51:26.279Z,6.30
2018-12-06T05:53:54.124Z,6.30
2018-12-06T05:56:22.049Z,6.40
2018-12-06T05:58:50.021Z,6.40
2018-12-06T06:01:17.874Z,6.40
2018-12-06T06:03:45.725Z,6.40
2018-12-06T06:06:13.689Z,6.40
2018-12-06T06:08:41.557Z,6.50
2018-12-06T06:11:09.405Z,6.40
2018-12-06T06:13:37.373Z,6.40
2018-12-06T06:16:05.256Z,6.40
2018-12-06T06:18:33.240Z,6.40
2018-12-06T06:21:01.123Z,6.40
2018-12-06T06:23:28.970Z,6.40
2018-12-06T06:25:56.838Z,6.30
2018-12-06T06:28:24.726Z,6.40
2018-12-06T06:30:52.649Z,6.50
2018-12-06T06:33:20.679Z,6.40
2018-12-06T06:35:48.548Z,6.50
2018-12-06T06:38:16.455Z,6.50
2018-12-06T06:40:44.423Z,6.50
2018-12-06T06:43:12.412Z,6.50
2018-12-06T06:45:40.295Z,6.50
2018-12-06T06:48:08.194Z,6.50
2018-12-06T06:50:36.115Z,6.50
2018-12-06T06:53:03.977Z,6.50
2018-12-06T06:55:31.880Z,6.50
2018-12-06T06:57:59.738Z,6.50
2018-12-06T07:00:27.609Z,6.50
2018-12-06T07:02:55.498Z,6.50
2018-12-06T07:05:23.533Z,6.50
2018-12-06T07:07:51.368Z,6.80
2018-12-06T07:10:19.202Z,6.60
2018-12-06T07:12:47.060Z,6.60
2018-12-06T07:15:15.095Z,6.60
2018-12-06T07:17:42.994Z,6.60
2018-12-06T07:20:10.863Z,6.70
2018-12-06T07:22:38.806Z,6.70
2018-12-06T07:25:06.869Z,6.70
2018-12-06T07:27:34.748Z,6.70
2018-12-06T07:30:02.835Z,6.80
2018-12-06T07:32:30.674Z,6.70
2018-12-06T07:34:58.557Z,6.80
2018-12-06T07:37:26.476Z,6.80
2018-12-06T07:39:54.350Z,6.80
2018-12-06T07:42:39.333Z,6.80
2018-12-06T07:45:07.522Z,6.80
2018-12-06T07:47:35.387Z,6.80
2018-12-06T07:50:03.995Z,6.80
2018-12-06T07:52:31.833Z,6.90
2018-12-06T07:54:59.810Z,6.90
2018-12-06T07:57:28.903Z,6.90
2018-12-06T07:59:57.811Z,6.90
2018-12-06T08:02:25.751Z,6.90
2018-12-06T08:04:53.855Z,6.90
2018-12-06T08:07:21.789Z,7.00
2018-12-06T08:09:49.650Z,7.00
2018-12-06T08:12:17.500Z,7.00
2018-12-06T08:14:45.361Z,7.00
2018-12-06T08:17:13.258Z,7.10
2018-12-06T08:19:41.160Z,7.10
2018-12-06T08:22:09.144Z,7.10
2018-12-06T08:24:36.983Z,7.10
2018-12-06T08:27:04.846Z,7.20
2018-12-06T08:29:32.738Z,7.20
2018-12-06T08:32:00.585Z,7.20
2018-12-06T08:34:28.454Z,7.20
2018-12-06T08:36:56.322Z,7.20
2018-12-06T08:39:24.304Z,7.30
2018-12-06T08:41:52.208Z,7.30
2018-12-06T08:44:21.513Z,7.30
2018-12-06T08:46:49.700Z,7.30
2018-12-06T08:49:17.548Z,6.90
2018-12-06T08:51:45.422Z,7.40
2018-12-06T08:54:13.284Z,7.40
2018-12-06T08:56:41.191Z,7.40
2018-12-06T08:59:09.102Z,7.40
2018-12-06T09:01:36.955Z,7.50
2018-12-06T09:04:04.872Z,7.60
2018-12-06T09:06:32.800Z,7.60
2018-12-06T09:09:00.739Z,7.70
2018-12-06T09:11:28.591Z,7.70
2018-12-06T09:13:56.594Z,7.80
2018-12-06T09:16:24.465Z,7.80
2018-12-06T09:18:52.316Z,7.90
2018-12-06T09:21:20.195Z,8.00
2018-12-06T09:23:48.021Z,8.10
2018-12-06T09:26:15.930Z,8.10
2018-12-06T09:28:43.843Z,8.20
2018-12-06T09:31:11.747Z,8.30
2018-12-06T09:33:51.007Z,8.30
2018-12-06T09:36:18.847Z,8.40
2018-12-06T09:38:47.043Z,8.40
2018-12-06T09:41:18.142Z,8.40
2018-12-06T09:43:46.256Z,8.50
2018-12-06T09:46:14.121Z,8.50
2018-12-06T09:48:42.070Z,8.50
2018-12-06T09:51:10.088Z,8.50
2018-12-06T09:53:37.920Z,8.50
2018-12-06T09:56:05.959Z,8.50
2018-12-06T09:58:33.950Z,8.50
2018-12-06T10:01:01.935Z,8.60
2018-12-06T10:03:29.795Z,8.50
2018-12-06T10:05:57.768Z,8.60
2018-12-06T10:08:25.656Z,8.50
2018-12-06T10:10:53.529Z,8.50
2018-12-06T10:13:21.423Z,8.60
2018-12-06T10:15:49.360Z,8.60
2018-12-06T10:18:17.200Z,8.60
2018-12-06T10:20:45.192Z,8.50
2018-12-06T10:23:13.067Z,8.60
2018-12-06T10:25:40.940Z,8.70
2018-12-06T10:28:08.861Z,8.70
2018-12-06T10:30:36.683Z,8.70
2018-12-06T10:33:04.639Z,8.70
2018-12-06T10:35:32.569Z,8.70
2018-12-06T10:38:00.467Z,8.80
2018-12-06T10:40:28.328Z,8.80
2018-12-06T10:42:56.264Z,8.50
2018-12-06T10:45:24.146Z,8.80
2018-12-06T10:47:52.110Z,8.90
2018-12-06T10:50:20.045Z,8.90
2018-12-06T10:52:47.900Z,8.90
2018-12-06T10:55:15.758Z,8.90
2018-12-06T10:57:43.593Z,9.00
2018-12-06T11:00:15.993Z,9.00
2018-12-06T11:02:47.951Z,9.10
2018-12-06T11:05:16.775Z,9.10
2018-12-06T11:07:44.694Z,9.20
2018-12-06T11:10:12.599Z,9.20
2018-12-06T11:12:40.516Z,9.20
2018-12-06T11:15:08.410Z,9.20
2018-12-06T11:17:36.319Z,9.20
2018-12-06T11:20:05.116Z,9.30
2018-12-06T11:22:33.020Z,9.30
2018-12-06T11:25:00.856Z,9.30
2018-12-06T11:27:28.716Z,9.40
2018-12-06T11:29:56.633Z,9.40
2018-12-06T11:32:24.506Z,9.40
2018-12-06T11:34:52.452Z,9.40
2018-12-06T11:37:20.319Z,9.40
2018-12-06T11:39:48.243Z,9.40
2018-12-06T11:42:16.079Z,9.40
2018-12-06T11:44:43.963Z,9.40
2018-12-06T11:47:11.782Z,9.40
2018-12-06T11:49:39.735Z,9.50
2018-12-06T11:52:07.603Z,9.50
2018-12-06T11:54:35.423Z,9.40
2018-12-06T11:57:03.346Z,9.50
2018-12-06T11:59:31.196Z,9.50
2018-12-06T12:01:59.398Z,9.40
2018-12-06T12:04:27.247Z,9.40
2018-12-06T12:06:55.232Z,9.40
2018-12-06T12:09:23.221Z,9.40
2018-12-06T12:11:51.106Z,9.40
2018-12-06T12:14:18.983Z,9.40
2018-12-06T12:16:46.778Z,9.40
2018-12-06T12:19:14.606Z,9.40
2018-12-06T12:21:42.526Z,9.50
2018-12-06T12:24:10.408Z,9.50
2018-12-06T12:26:38.243Z,9.50
2018-12-06T12:29:06.156Z,9.50
2018-12-06T12:31:34.021Z,9.50
2018-12-06T12:34:01.882Z,9.60
2018-12-06T12:36:29.780Z,9.60
2018-12-06T12:38:57.861Z,9.60
2018-12-06T12:41:25.743Z,9.60
2018-12-06T12:43:53.561Z,9.60
2018-12-06T12:46:21.416Z,9.60
2018-12-06T12:48:49.303Z,9.60
2018-12-06T12:51:17.190Z,9.60
2018-12-06T12:53:45.086Z,9.60
2018-12-06T12:56:12.955Z,9.60
2018-12-06T12:58:40.880Z,9.70
2018-12-06T13:01:08.739Z,9.70
2018-12-06T13:03:36.667Z,9.70
2018-12-06T13:06:04.672Z,9.70
2018-12-06T13:08:32.567Z,9.70
2018-12-06T13:11:00.507Z,9.70
2018-12-06T13:13:28.420Z,9.70
2018-12-06T13:15:56.275Z,9.80
2018-12-06T13:18:24.163Z,9.80
2018-12-06T13:20:52.152Z,9.80
2018-12-06T13:23:20.028Z,9.80
2018-12-06T13:25:47.918Z,9.80
2018-12-06T13:28:15.947Z,9.90
2018-12-06T13:30:43.947Z,9.90
2018-12-06T13:33:11.859Z,9.90
2018-12-06T13:35:39.705Z,9.90
2018-12-06T13:38:07.696Z,10.00
2018-12-06T13:40:35.582Z,10.00
2018-12-06T13:43:03.444Z,10.00
2018-12-06T13:45:31.342Z,10.00
2018-12-06T13:47:59.198Z,10.00
2018-12-06T13:50:27.260Z,10.00
2018-12-06T13:52:55.138Z,10.10
2018-12-06T13:55:22.999Z,10.10
2018-12-06T13:57:50.893Z,10.10
2018-12-06T14:00:18.774Z,10.10
2018-12-06T14:02:46.722Z,10.20
2018-12-06T14:05:14.618Z,10.20
2018-12-06T14:07:42.467Z,10.20
2018-12-06T14:10:10.374Z,10.20
2018-12-06T14:12:38.247Z,10.20
2018-12-06T14:15:06.312Z,10.20
2018-12-06T14:17:34.193Z,10.30
2018-12-06T14:20:02.219Z,10.30
2018-12-06T14:22:30.080Z,10.30
2018-12-06T14:24:57.917Z,10.30
2018-12-06T14:27:25.835Z,10.30
2018-12-06T14:29:53.706Z,10.30
2018-12-06T14:32:21.709Z,10.40
2018-12-06T14:34:49.542Z,10.40
2018-12-06T14:37:17.419Z,10.40
2018-12-06T14:39:45.261Z,10.40
2018-12-06T14:42:13.116Z,10.40
2018-12-06T14:44:41.145Z,10.40
2018-12-06T14:47:08.990Z,10.40
2018-12-06T14:52:11.384Z,10.40
2018-12-06T14:54:39.287Z,10.40
2018-12-06T14:57:07.256Z,10.40
2018-12-06T14:59:35.103Z,10.40
2018-12-06T15:02:03.099Z,10.40
2018-12-06T15:04:30.996Z,10.40
2018-12-06T15:06:58.866Z,10.40
2018-12-06T15:09:26.814Z,10.40
2018-12-06T15:11:54.692Z,10.40
2018-12-06T15:14:22.548Z,10.40
2018-12-06T15:16:50.551Z,10.40
2018-12-06T15:19:18.418Z,10.40
2018-12-06T15:21:46.259Z,10.40
2018-12-06T15:24:14.178Z,10.40
2018-12-06T15:26:42.018Z,10.40
2018-12-06T15:29:09.904Z,10.30
2018-12-06T15:31:37.800Z,10.30
2018-12-06T15:34:05.663Z,10.30
2018-12-06T15:36:33.551Z,10.30
2018-12-06T15:39:01.397Z,10.30
2018-12-06T15:41:29.232Z,10.30
2018-12-06T15:43:57.151Z,10.30
2018-12-06T15:46:24.956Z,10.30
2018-12-06T15:48:52.910Z,10.30
2018-12-06T15:51:20.755Z,10.30
2018-12-06T15:53:48.642Z,10.20
2018-12-06T15:56:16.604Z,10.20
2018-12-06T15:58:44.465Z,10.20
2018-12-06T16:01:12.324Z,10.20
2018-12-06T16:03:40.214Z,10.20
2018-12-06T16:06:08.112Z,10.20
2018-12-06T16:08:35.994Z,10.20
2018-12-06T16:11:03.881Z,10.20
2018-12-06T16:13:31.779Z,10.20
2018-12-06T16:15:59.659Z,10.20
2018-12-06T16:18:27.609Z,10.20
2018-12-06T16:20:55.474Z,10.20
2018-12-06T16:23:23.344Z,10.30
2018-12-06T16:25:51.315Z,10.30
2018-12-06T16:28:19.133Z,10.30
2018-12-06T16:30:47.023Z,10.30
2018-12-06T16:33:15.052Z,10.30
2018-12-06T16:35:42.974Z,10.30
2018-12-06T16:38:10.844Z,10.30
2018-12-06T16:40:38.732Z,10.30
2018-12-06T16:43:06.589Z,10.30
2018-12-06T16:45:34.494Z,10.30
2018-12-06T16:48:02.472Z,10.40
2018-12-06T16:50:30.338Z,10.40
2018-12-06T16:52:58.256Z,10.40
2018-12-06T16:55:26.066Z,10.40
2018-12-06T16:57:53.908Z,10.40
2018-12-06T17:00:21.754Z,10.40
2018-12-06T17:02:49.603Z,10.40
2018-12-06T17:05:17.428Z,10.40
2018-12-06T17:07:45.348Z,10.40
2018-12-06T17:10:13.242Z,10.40
2018-12-06T17:12:41.133Z,10.40
2018-12-06T17:15:09.061Z,10.40
2018-12-06T17:17:36.957Z,10.40
2018-12-06T17:20:06.187Z,10.40
2018-12-06T17:22:34.034Z,10.40
2018-12-06T17:25:01.958Z,10.40
2018-12-06T17:27:29.864Z,10.40
2018-12-06T17:29:57.927Z,10.40
2018-12-06T17:32:25.937Z,10.40
2018-12-06T17:34:53.841Z,10.50
2018-12-06T17:37:21.738Z,10.50
2018-12-06T17:39:49.596Z,10.50
2018-12-06T17:42:17.535Z,10.50
2018-12-06T17:44:45.381Z,10.50
2018-12-06T17:47:13.298Z,10.50
2018-12-06T17:49:41.200Z,10.50
2018-12-06T17:52:09.063Z,10.50
2018-12-06T17:54:36.949Z,10.50
2018-12-06T17:57:05.091Z,10.50
2018-12-06T17:59:32.969Z,10.60
2018-12-06T18:02:00.809Z,10.60
2018-12-06T18:04:28.711Z,10.60
2018-12-06T18:06:56.609Z,10.60
2018-12-06T18:09:24.476Z,10.60
2018-12-06T18:11:52.341Z,10.60
2018-12-06T18:14:20.238Z,10.60
2018-12-06T18:16:48.156Z,10.60
2018-12-06T18:19:16.078Z,10.60
2018-12-06T18:21:43.924Z,10.60
2018-12-06T18:24:18.391Z,10.60
2018-12-06T18:26:41.811Z,10.60
2018-12-06T18:29:09.646Z,10.60
2018-12-06T18:31:37.529Z,10.60
2018-12-06T18:34:05.393Z,10.60
2018-12-06T18:36:33.275Z,10.60
2018-12-06T18:39:01.183Z,10.60
2018-12-06T18:41:29.072Z,10.60
2018-12-06T18:43:56.941Z,10.60
2018-12-06T18:46:24.885Z,10.60
2018-12-06T18:48:52.801Z,10.70
2018-12-06T18:51:20.638Z,10.70
2018-12-06T18:53:48.856Z,10.60
2018-12-06T18:56:17.083Z,10.70
2018-12-06T18:58:44.949Z,10.70
2018-12-06T19:01:12.852Z,10.70
2018-12-06T19:03:40.705Z,10.60
2018-12-06T19:06:08.578Z,10.60
2018-12-06T19:09:05.765Z,10.60
2018-12-06T19:11:33.746Z,10.70
2018-12-06T19:14:01.745Z,10.70
2018-12-06T19:16:29.583Z,10.70
2018-12-06T19:18:57.509Z,10.70
2018-12-06T19:21:25.327Z,10.60
2018-12-06T19:23:53.175Z,10.70
2018-12-06T19:26:21.078Z,10.60
2018-12-06T19:28:48.970Z,10.60
2018-12-06T19:31:16.940Z,10.60
2018-12-06T19:33:44.831Z,10.60
2018-12-06T19:36:12.677Z,10.60
2018-12-06T19:38:40.595Z,10.60
2018-12-06T19:41:08.469Z,10.60
2018-12-06T19:43:36.374Z,10.60
2018-12-06T19:46:04.225Z,10.60
2018-12-06T19:48:32.173Z,10.60
2018-12-06T19:51:00.149Z,10.70
2018-12-06T19:53:28.015Z,10.70
2018-12-06T19:55:55.894Z,10.70
2018-12-06T19:58:23.824Z,10.70
2018-12-06T20:00:52.021Z,10.70
2018-12-06T20:03:19.864Z,10.70
2018-12-06T20:05:47.714Z,10.70
2018-12-06T20:08:15.833Z,10.70
2018-12-06T20:10:43.699Z,10.70
2018-12-06T20:13:11.585Z,10.70
2018-12-06T20:15:39.517Z,10.70
2018-12-06T20:18:07.478Z,10.70
2018-12-06T20:20:35.406Z,10.70
2018-12-06T20:23:03.348Z,10.70
2018-12-06T20:25:31.359Z,10.70
2018-12-06T20:27:59.320Z,10.70
2018-12-06T20:30:27.241Z,10.70
2018-12-06T20:32:55.116Z,10.70
2018-12-06T20:35:23.011Z,10.70
2018-12-06T20:37:51.032Z,10.70
2018-12-06T20:40:18.900Z,10.70
2018-12-06T20:42:46.759Z,10.70
2018-12-06T20:45:14.849Z,10.70
2018-12-06T20:47:42.750Z,10.70
2018-12-06T20:50:10.741Z,10.70
2018-12-06T20:52:38.711Z,10.70
2018-12-06T20:55:06.688Z,10.60
2018-12-06T20:57:37.423Z,10.80
2018-12-06T21:00:05.244Z,10.70
2018-12-06T21:02:33.108Z,10.70
2018-12-06T21:05:00.964Z,10.70
2018-12-06T21:07:28.871Z,10.70
2018-12-06T21:09:56.707Z,10.80
2018-12-06T21:12:24.627Z,10.80
2018-12-06T21:14:52.519Z,10.80
2018-12-06T21:17:20.631Z,10.80
2018-12-06T21:19:48.503Z,10.80
2018-12-06T21:22:16.360Z,10.80
2018-12-06T21:24:44.300Z,10.80
2018-12-06T21:27:12.149Z,10.80
2018-12-06T21:29:40.012Z,10.80
2018-12-06T21:32:07.880Z,10.90
2018-12-06T21:34:35.774Z,10.90
2018-12-06T21:37:03.657Z,10.90
2018-12-06T21:39:31.500Z,10.90
2018-12-06T21:41:59.352Z,10.80
2018-12-06T21:44:27.340Z,10.90
2018-12-06T21:46:55.191Z,10.90
2018-12-06T21:49:23.039Z,11.00
2018-12-06T21:51:50.939Z,11.00
2018-12-06T21:54:18.804Z,11.00
2018-12-06T21:56:46.666Z,11.00
2018-12-06T21:59:14.561Z,11.00
2018-12-06T22:01:42.450Z,11.00
2018-12-06T22:04:10.338Z,11.00
2018-12-06T22:06:38.429Z,11.00
2018-12-06T22:09:07.075Z,11.00
2018-12-06T22:11:34.980Z,11.00
2018-12-06T22:14:02.880Z,11.00
2018-12-06T22:16:30.699Z,11.00
2018-12-06T22:18:58.580Z,11.00
2018-12-06T22:21:26.391Z,11.00
2018-12-06T22:23:54.340Z,11.00
2018-12-06T22:26:22.214Z,11.00
2018-12-06T22:28:50.056Z,11.00
2018-12-06T22:31:18.074Z,11.00
2018-12-06T22:33:45.926Z,11.00
2018-12-06T22:36:13.731Z,11.00
2018-12-06T22:38:41.763Z,11.00
2018-12-06T22:41:09.619Z,11.00
2018-12-06T22:43:37.464Z,11.00
2018-12-06T22:46:05.459Z,11.00
2018-12-06T22:48:33.296Z,11.00
2018-12-06T22:51:01.163Z,11.00
2018-12-06T22:53:29.080Z,11.00
2018-12-06T22:55:56.939Z,11.10
2018-12-06T22:58:24.805Z,11.10
2018-12-06T23:00:56.557Z,11.10
2018-12-06T23:03:24.640Z,11.00
2018-12-06T23:05:53.465Z,11.00
2018-12-06T23:08:21.394Z,11.10
2018-12-06T23:10:49.279Z,11.10
2018-12-06T23:13:17.135Z,11.10
2018-12-06T23:15:45.079Z,11.10
2018-12-06T23:18:12.977Z,11.10
2018-12-06T23:20:40.791Z,11.10
2018-12-06T23:23:08.751Z,11.20
2018-12-06T23:25:36.602Z,11.20
2018-12-06T23:28:04.594Z,11.20
2018-12-06T23:30:32.507Z,11.20
2018-12-06T23:33:00.432Z,11.20
2018-12-06T23:35:28.326Z,11.20
2018-12-06T23:37:56.188Z,11.20
2018-12-06T23:40:24.059Z,11.30
2018-12-06T23:42:51.922Z,11.30
2018-12-06T23:45:19.776Z,11.30
2018-12-06T23:47:47.595Z,11.30
2018-12-06T23:50:15.497Z,11.30
2018-12-06T23:52:43.337Z,11.30
2018-12-06T23:55:11.325Z,11.30
2018-12-06T23:57:39.122Z,11.30
